Bei Facebook empfehlenBei Twitter postenGoogle plusPinterest

Das Wetter im Erzgebirge am 22.10.2015

Wetter und Klima am 22.10.2015 Holzhau im Erzgebirge (630m ü.NN)
Letzte gemessene Temperatur und Uhrzeit der Messung23:45:00 Uhr7.40 °C
Temperatur (Maximum / Höchstwert) und Uhrzeit der Messung14:30:00 Uhr10.80 °C
Temperatur (Minimum / Tiefstwert) und Uhrzeit der Messung06:15:000.50 °C
Errechneter Absolutwert der Temperaturschwankungen zwischen Tmin und Tmax des Tages10.30 K
Errechnete Tagesmitteltemperatur5.74792 °C
Gesamt - Niederschlag des Tages (in flüssiger Form)1.55 Liter / m²
Luftdruck (Maximum / Höchstwert) und Zeitpunkt der Messung00:00:00 Uhr1014.70 hPa
Luftdruck (Minimum / Tiefstwert) und Zeitpunkt der Messung16:00:00 Uhr1011.00 hPa
Errechneter Absolutwert der Luftdruckschwankungen des Tages3.70 hPa
Höchste gemessene Windgeschwindigkeit und Uhrzeit der Messung14:00:00 Uhr12.60 km/h
Errechnete Windhäufigkeit in Relation zu den Messwerten des Tages14.58333 %
Niedrigste Windkühle (Windchill) und Zeitpunkt der Messung06:15:00 Uhr0.50 °C
Taupunkt (Maximum / Höchstwert) und Uhrzeit der Messung12:00:00 Uhr9.20 °C
Taupunkt (Minimum / Tiefstwert) und Uhrzeit der Messung06:15:00-0.10 °C
Anzahl der automatisch eingelesenen Messwerte 96

Detaillierte Wetter- und Klima- Messwerte für den 22.10.2015 in Holzhau im Erzgebirge (630m ü.NN)
ZeitTemperaturLuftdruckRel. LuftfeuchteWindWindrichtungWindchillTaupunktNiederschlag l/m²
23:45:007.40 °C1013.90 hPa95.00 %6.70 °C1.55
23:30:007.40 °C1013.70 hPa95.00 %6.70 °C1.55
23:15:007.30 °C1013.70 hPa95.00 %6.60 °C1.03
23:00:007.30 °C1013.40 hPa95.00 %3.60 km/hWSW7.30 °C6.60 °C1.03
22:45:007.20 °C1013.40 hPa95.00 %6.50 °C1.03
22:30:007.20 °C1013.20 hPa95.00 %6.50 °C0.52
22:15:007.10 °C1013.20 hPa95.00 %6.40 °C0.52
22:00:007.10 °C1013.10 hPa95.00 %6.40 °C0.52
21:45:007.10 °C1012.90 hPa94.00 %6.20 °C0.52
21:30:007.10 °C1013.00 hPa94.00 %6.20 °C0.52
21:15:007.00 °C1012.80 hPa94.00 %6.10 °C 
21:00:007.00 °C1012.70 hPa94.00 %6.10 °C 
20:45:007.00 °C1012.50 hPa94.00 %3.24 km/hWSW7.00 °C6.10 °C 
20:30:007.00 °C1012.50 hPa94.00 %6.10 °C 
20:15:007.00 °C1012.40 hPa94.00 %6.10 °C 
20:00:006.90 °C1012.30 hPa93.00 %7.20 km/hWNW5.60 °C5.80 °C 
19:45:006.90 °C1012.40 hPa93.00 %5.80 °C 
19:30:006.90 °C1012.50 hPa93.00 %5.80 °C 
19:15:007.00 °C1012.40 hPa92.00 %5.80 °C 
19:00:007.10 °C1012.30 hPa92.00 %2.52 km/hWNW7.10 °C5.90 °C 
18:45:007.10 °C1012.20 hPa92.00 %5.90 °C 
18:30:007.20 °C1012.10 hPa91.00 %5.80 °C 
18:15:007.20 °C1012.00 hPa91.00 %5.80 °C 
18:00:007.30 °C1012.00 hPa90.00 %5.80 °C 
17:45:007.40 °C1011.90 hPa89.00 %5.70 °C 
17:30:007.60 °C1011.80 hPa88.00 %5.70 °C 
17:15:007.90 °C1011.60 hPa88.00 %6.00 °C 
17:00:008.20 °C1011.30 hPa87.00 %6.20 °C 
16:45:008.50 °C1011.20 hPa86.00 %2.52 km/hSW8.50 °C6.30 °C 
16:30:008.70 °C1011.20 hPa86.00 %6.50 °C 
16:15:009.10 °C1011.30 hPa85.00 %6.70 °C 
16:00:009.30 °C1011.00 hPa84.00 %6.70 °C 
15:45:009.50 °C1011.10 hPa84.00 %6.90 °C 
15:30:009.90 °C1011.10 hPa84.00 %4.32 km/hSW9.90 °C7.30 °C 
15:15:0010.20 °C1011.30 hPa84.00 %7.20 km/hWSW9.40 °C7.60 °C 
15:00:0010.40 °C1011.30 hPa85.00 %8.00 °C 
14:45:0010.60 °C1011.40 hPa85.00 %8.20 °C 
14:30:0010.80 °C1011.50 hPa87.00 %8.70 °C 
14:15:0010.60 °C1011.40 hPa88.00 %5.04 km/hSSW10.40 °C8.70 °C 
14:00:0010.60 °C1011.50 hPa89.00 %12.60 km/hW9.00 °C8.90 °C 
13:45:0010.60 °C1011.60 hPa90.00 %1.08 km/hSW10.60 °C9.00 °C 
13:30:0010.20 °C1011.60 hPa91.00 %8.80 °C 
13:15:009.90 °C1011.90 hPa92.00 %8.70 °C 
13:00:009.80 °C1011.90 hPa93.00 %8.70 °C 
12:45:009.90 °C1012.00 hPa93.00 %2.52 km/hSW9.90 °C8.80 °C 
12:30:009.90 °C1012.20 hPa94.00 %9.00 °C 
12:15:009.80 °C1012.10 hPa95.00 %1.80 km/hNW9.80 °C9.00 °C 
12:00:009.80 °C1012.20 hPa96.00 %9.20 °C 
11:45:009.50 °C1012.20 hPa97.00 %9.00 °C 
11:30:009.00 °C1012.20 hPa97.00 %3.24 km/hSW9.00 °C8.50 °C 
11:15:008.80 °C1012.20 hPa97.00 %8.40 °C 
11:00:007.80 °C1012.10 hPa97.00 %7.40 °C 
10:45:006.10 °C1012.20 hPa97.00 %5.70 °C 
10:30:005.40 °C1012.20 hPa96.00 %4.80 °C 
10:15:005.10 °C1012.30 hPa97.00 %4.70 °C 
10:00:004.60 °C1012.20 hPa97.00 %4.20 °C 
09:45:003.80 °C1012.20 hPa97.00 %3.40 °C 
09:30:002.70 °C1012.20 hPa96.00 %2.10 °C 
09:15:002.40 °C1012.20 hPa96.00 %1.80 °C 
09:00:002.20 °C1012.30 hPa96.00 %1.60 °C 
08:45:001.60 °C1012.10 hPa96.00 %1.00 °C 
08:30:001.30 °C1012.00 hPa96.00 %0.70 °C 
08:15:001.10 °C1012.10 hPa96.00 %0.50 °C 
08:00:000.90 °C1012.20 hPa96.00 %0.30 °C 
07:45:001.10 °C1012.20 hPa96.00 %0.50 °C 
07:30:000.90 °C1012.10 hPa96.00 %0.30 °C 
07:15:001.10 °C1012.10 hPa96.00 %0.50 °C 
07:00:000.90 °C1012.20 hPa96.00 %0.30 °C 
06:45:000.70 °C1012.10 hPa96.00 %0.10 °C 
06:30:000.60 °C1012.30 hPa96.00 %0.00 °C 
06:15:000.50 °C1012.20 hPa96.00 %-0.10 °C 
06:00:000.50 °C1012.40 hPa96.00 %-0.10 °C 
05:45:000.50 °C1012.40 hPa96.00 %-0.10 °C 
05:30:000.50 °C1012.40 hPa96.00 %-0.10 °C 
05:15:000.60 °C1012.40 hPa96.00 %0.00 °C 
05:00:000.90 °C1012.40 hPa95.00 %0.20 °C 
04:45:001.30 °C1012.40 hPa96.00 %0.70 °C 
04:30:001.60 °C1012.80 hPa95.00 %0.90 °C 
04:15:002.30 °C1012.70 hPa96.00 %1.70 °C 
04:00:003.10 °C1012.80 hPa96.00 %2.50 °C 
03:45:003.80 °C1013.00 hPa96.00 %3.20 °C 
03:30:003.90 °C1013.00 hPa96.00 %3.60 km/hWSW3.90 °C3.30 °C 
03:15:003.90 °C1013.40 hPa96.00 %3.30 °C 
03:00:003.90 °C1013.40 hPa96.00 %3.30 °C 
02:45:003.80 °C1013.60 hPa96.00 %3.20 °C 
02:30:003.80 °C1013.60 hPa96.00 %3.20 °C 
02:15:003.80 °C1013.80 hPa96.00 %3.20 °C 
02:00:003.90 °C1013.90 hPa96.00 %3.30 °C 
01:45:003.90 °C1014.10 hPa96.00 %3.30 °C 
01:30:003.90 °C1014.10 hPa96.00 %3.30 °C 
01:15:003.90 °C1014.10 hPa96.00 %3.30 °C 
01:00:003.90 °C1014.30 hPa96.00 %3.30 °C 
00:45:003.90 °C1014.60 hPa96.00 %3.30 °C 
00:30:004.00 °C1014.50 hPa96.00 %3.40 °C 
00:15:004.00 °C1014.50 hPa96.00 %3.40 °C 
00:00:004.10 °C1014.70 hPa96.00 %3.50 °C 

Permanenter Link zu dieser Seite: Wetter im Erzgebirge am 22.10.2015
Performance-Info: Die Erstellung der Seite / Statistik(en) / Tabelle(n) erforderte 5 Datenbankserver-Abfrage(n) und dauerte 102 Millisekunden. (Dieser Messwert ist von der Gesamt-Auslastung des Servers abhängig.)
Erzgebirge - Wetter | Erzgebirge - Wetter (Mobilgeräte) | Komplette Klimadatenbank